Terminal Aerodrome Forecast
Issued by NWS

Home | Current Version | Previous Version | Graphics & Text | Print | Product List | Glossary On
Versions: 1 2 3 4 5 6 7 8 9 10 11 12 13 14 15 16 17 18 19 20 21
248
FTUS43 KMPX 141120
TAFAXN
TAF
KAXN 141120Z 1412/1512 09006KT P6SM SCT090 BKN110
     FM142000 05011KT P6SM -SHRA OVC060
     FM142200 03013KT P6SM -SHRA OVC025
     FM150400 35013G22KT 6SM SHRA BR OVC020
     FM150800 33014G20KT P6SM OVC050=

USA.gov is the U.S. government's official web portal to all federal, state and local government web resources and services.